Mississagi — CFG8050 — position and weather

sailwx.info

Track history (hours):
 
Tides and Currents Weather Stations Pressure Air Temp Water Temp Dewpoint Dewpoint Depression Visibility Wind Speed Wind Dir Waves Ship Positions

Mississagi

Last reported at 2017-Jul-21 07:00 UTC. Time now 2017-Jul-24 10:41 UTC.
Position N 45°12' W 074°18'.

Length 189 m; draft 4.2 m.

Type: Cargo ship. MMSI: 316004940.

Date/timePositionNaut miles runAvg speedWind from/ knotsBaromVisibWave heightAir tempDewpointWater temp
2017-Jul-21 07:00N 45°12' W 074°18'6 9.7
2017-Jul-21 06:21N 45°14' W 074°09'4 8.4
2017-Jul-21 05:52N 45°13' W 074°03'3 8.4
2017-Jul-21 05:30N 45°14' W 073°59'4 8.6
2017-Jul-21 05:00N 45°18' W 073°56'1 1.0
2017-Jul-21 04:30N 45°18' W 073°55'1 1.1
2017-Jul-21 04:00N 45°19' W 073°55'0 0.0
2017-Jul-21 03:30N 45°19' W 073°55'0 0.6
2017-Jul-21 03:00N 45°19' W 073°55'2 3.3
2017-Jul-21 02:30N 45°20' W 073°53'4 8.7
2017-Jul-21 02:00N 45°23' W 073°48'5 9.2
2017-Jul-21 01:30N 45°25' W 073°42'3 5.3
2017-Jul-21 01:00N 45°24' W 073°39'3 5.7
2017-Jul-21 00:30N 45°24' W 073°35'1 0.9
2017-Jul-20 23:57N 45°24' W 073°34'1 2.8
2017-Jul-20 23:29N 45°24' W 073°32'2 4.5
2017-Jul-20 22:59N 45°26' W 073°30'4 3.2
2017-Jul-20 21:48N 45°30' W 073°31'0 0.7
2017-Jul-20 21:30N 45°30' W 073°31'1 0.1
2017-Jul-20 12:01N 45°30' W 073°31'0 1.4
2017-Jul-20 12:00N 45°30' W 073°31'2 3.3
2017-Jul-20 11:30N 45°28' W 073°30'5 3.1
2017-Jul-20 09:48N 45°24' W 073°36'2 5.1
2017-Jul-20 09:27N 45°24' W 073°38'2 5.6
2017-Jul-20 09:00N 45°25' W 073°42'4 8.0
2017-Jul-20 08:30N 45°24' W 073°47'611.9
2017-Jul-20 08:00N 45°20' W 073°54'2 3.3
2017-Jul-20 07:30N 45°19' W 073°55'1 1.3
2017-Jul-20 07:00N 45°18' W 073°55'0 0.6
2017-Jul-20 06:30N 45°18' W 073°56'1 1.5
2017-Jul-20 06:00N 45°18' W 073°56'3 6.1
2017-Jul-20 05:29N 45°15' W 073°59'6 9.4
2017-Jul-20 04:52N 45°13' W 074°07'510.1
2017-Jul-20 04:25N 45°14' W 074°13'  
2017-Jul-13 20:05N 45°14' W 074°00'2 8.6
2017-Jul-13 19:50N 45°15' W 073°58'3 8.5
2017-Jul-13 19:31N 45°18' W 073°56'1 1.1
2017-Jul-13 19:01N 45°18' W 073°56'1 1.6
2017-Jul-13 18:31N 45°19' W 073°55'1 1.6
2017-Jul-13 18:00N 45°20' W 073°55'4 7.2
2017-Jul-13 17:30N 45°22' W 073°50'5 9.5
2017-Jul-13 17:00N 45°24' W 073°45'3 6.5
2017-Jul-13 16:30N 45°25' W 073°40'4 5.3
2017-Jul-13 15:50N 45°24' W 073°35'2 2.0
2017-Jul-13 14:49N 45°24' W 073°32'2 5.3
2017-Jul-13 14:30N 45°25' W 073°30'3 5.6
2017-Jul-13 13:56N 45°29' W 073°31'  
Track history (hours):
 
Tides and Currents Weather Stations Pressure Air Temp Water Temp Dewpoint Dewpoint Depression Visibility Wind Speed Wind Dir Waves Ship Positions

Mississagi

Last reported at 2017-Jul-21 07:00 UTC. Time now 2017-Jul-24 10:41 UTC.
Position N 45°12' W 074°18'.

Length 189 m; draft 4.2 m.

Type: Cargo ship. MMSI: 316004940.

Date/timePositionNaut miles runAvg speedWind from/ knotsBaromVisibWave heightAir tempDewpointWater temp
2017-Jul-21 07:00N 45°12' W 074°18'6 9.7
2017-Jul-21 06:21N 45°14' W 074°09'4 8.4
2017-Jul-21 05:52N 45°13' W 074°03'3 8.4
2017-Jul-21 05:30N 45°14' W 073°59'4 8.6
2017-Jul-21 05:00N 45°18' W 073°56'1 1.0
2017-Jul-21 04:30N 45°18' W 073°55'1 1.1
2017-Jul-21 04:00N 45°19' W 073°55'0 0.0
2017-Jul-21 03:30N 45°19' W 073°55'0 0.6
2017-Jul-21 03:00N 45°19' W 073°55'2 3.3
2017-Jul-21 02:30N 45°20' W 073°53'4 8.7
2017-Jul-21 02:00N 45°23' W 073°48'5 9.2
2017-Jul-21 01:30N 45°25' W 073°42'3 5.3
2017-Jul-21 01:00N 45°24' W 073°39'3 5.7
2017-Jul-21 00:30N 45°24' W 073°35'1 0.9
2017-Jul-20 23:57N 45°24' W 073°34'1 2.8
2017-Jul-20 23:29N 45°24' W 073°32'2 4.5
2017-Jul-20 22:59N 45°26' W 073°30'4 3.2
2017-Jul-20 21:48N 45°30' W 073°31'0 0.7
2017-Jul-20 21:30N 45°30' W 073°31'1 0.1
2017-Jul-20 12:01N 45°30' W 073°31'0 1.4
2017-Jul-20 12:00N 45°30' W 073°31'2 3.3
2017-Jul-20 11:30N 45°28' W 073°30'5 3.1
2017-Jul-20 09:48N 45°24' W 073°36'2 5.1
2017-Jul-20 09:27N 45°24' W 073°38'2 5.6
2017-Jul-20 09:00N 45°25' W 073°42'4 8.0
2017-Jul-20 08:30N 45°24' W 073°47'611.9
2017-Jul-20 08:00N 45°20' W 073°54'2 3.3
2017-Jul-20 07:30N 45°19' W 073°55'1 1.3
2017-Jul-20 07:00N 45°18' W 073°55'0 0.6
2017-Jul-20 06:30N 45°18' W 073°56'1 1.5
2017-Jul-20 06:00N 45°18' W 073°56'3 6.1
2017-Jul-20 05:29N 45°15' W 073°59'6 9.4
2017-Jul-20 04:52N 45°13' W 074°07'510.1
2017-Jul-20 04:25N 45°14' W 074°13'  
2017-Jul-13 20:05N 45°14' W 074°00'2 8.6
2017-Jul-13 19:50N 45°15' W 073°58'3 8.5
2017-Jul-13 19:31N 45°18' W 073°56'1 1.1
2017-Jul-13 19:01N 45°18' W 073°56'1 1.6
2017-Jul-13 18:31N 45°19' W 073°55'1 1.6
2017-Jul-13 18:00N 45°20' W 073°55'4 7.2
2017-Jul-13 17:30N 45°22' W 073°50'5 9.5
2017-Jul-13 17:00N 45°24' W 073°45'3 6.5
2017-Jul-13 16:30N 45°25' W 073°40'4 5.3
2017-Jul-13 15:50N 45°24' W 073°35'2 2.0
2017-Jul-13 14:49N 45°24' W 073°32'2 5.3
2017-Jul-13 14:30N 45°25' W 073°30'3 5.6
2017-Jul-13 13:56N 45°29' W 073°31'  

Dump ship's entire track history